createdAt,value
2017-11-30T00:00:49.501Z,5.08
2017-11-30T00:03:17.055Z,5.21
2017-11-30T00:05:44.526Z,5.23
2017-11-30T00:08:12.014Z,5.19
2017-11-30T00:10:39.596Z,5.16
2017-11-30T00:13:07.078Z,5.08
2017-11-30T00:15:34.591Z,5.04
2017-11-30T00:18:02.101Z,5.00
2017-11-30T00:20:29.664Z,4.94
2017-11-30T00:22:57.196Z,4.90
2017-11-30T00:25:24.722Z,4.88
2017-11-30T00:27:52.188Z,4.89
2017-11-30T00:30:19.646Z,4.89
2017-11-30T00:32:47.169Z,4.90
2017-11-30T00:35:14.604Z,4.90
2017-11-30T00:37:42.072Z,4.91
2017-11-30T00:40:09.570Z,4.94
2017-11-30T00:42:48.745Z,4.96
2017-11-30T00:45:16.205Z,4.97
2017-11-30T00:47:44.042Z,5.01
2017-11-30T00:50:11.503Z,5.00
2017-11-30T00:52:38.970Z,4.95
2017-11-30T00:55:06.790Z,4.91
2017-11-30T00:57:34.512Z,4.88
2017-11-30T01:00:03.149Z,4.86
2017-11-30T01:02:30.639Z,4.84
2017-11-30T01:04:58.065Z,4.79
2017-11-30T01:07:25.513Z,4.79
2017-11-30T01:09:52.962Z,4.75
2017-11-30T01:12:20.409Z,4.64
2017-11-30T01:14:47.930Z,4.59
2017-11-30T01:17:15.659Z,4.52
2017-11-30T01:19:43.197Z,4.46
2017-11-30T01:22:10.720Z,4.44
2017-11-30T01:24:38.240Z,4.39
2017-11-30T01:27:05.749Z,4.39
2017-11-30T01:29:33.269Z,4.42
2017-11-30T01:32:00.730Z,4.35
2017-11-30T01:34:28.327Z,4.36
2017-11-30T01:36:55.806Z,4.33
2017-11-30T01:39:23.898Z,4.32
2017-11-30T01:41:51.413Z,4.25
2017-11-30T01:44:18.866Z,4.25
2017-11-30T01:46:46.436Z,4.20
2017-11-30T01:49:13.920Z,4.16
2017-11-30T01:51:41.406Z,4.16
2017-11-30T01:54:08.852Z,4.18
2017-11-30T01:56:36.304Z,4.21
2017-11-30T01:59:03.760Z,4.23
2017-11-30T02:01:31.219Z,4.25
2017-11-30T02:03:58.659Z,4.28
2017-11-30T02:06:26.123Z,4.30
2017-11-30T02:08:53.594Z,4.31
2017-11-30T02:11:21.035Z,4.30
2017-11-30T02:13:48.501Z,4.28
2017-11-30T02:16:16.014Z,4.26
2017-11-30T02:18:43.471Z,4.25
2017-11-30T02:21:10.929Z,4.23
2017-11-30T02:23:38.414Z,4.15
2017-11-30T02:26:05.870Z,4.11
2017-11-30T02:28:33.354Z,4.10
2017-11-30T02:31:00.859Z,4.08
2017-11-30T02:33:28.337Z,4.04
2017-11-30T02:35:55.794Z,3.98
2017-11-30T02:38:23.261Z,3.99
2017-11-30T02:40:50.712Z,3.99
2017-11-30T02:43:18.244Z,3.98
2017-11-30T02:45:55.300Z,3.89
2017-11-30T02:48:22.797Z,3.86
2017-11-30T02:50:50.256Z,3.81
2017-11-30T02:53:17.777Z,3.76
2017-11-30T02:55:45.282Z,3.70
2017-11-30T02:58:12.746Z,3.70
2017-11-30T03:00:40.282Z,3.67
2017-11-30T03:03:07.770Z,3.68
2017-11-30T03:05:35.333Z,3.69
2017-11-30T03:08:02.858Z,3.62
2017-11-30T03:10:30.317Z,3.61
2017-11-30T03:12:57.995Z,3.62
2017-11-30T03:15:25.510Z,3.64
2017-11-30T03:17:53.032Z,3.64
2017-11-30T03:20:20.482Z,3.65
2017-11-30T03:22:48.016Z,3.69
2017-11-30T03:25:15.478Z,3.72
2017-11-30T03:27:43.129Z,3.63
2017-11-30T03:30:10.612Z,3.60
2017-11-30T03:32:38.104Z,3.58
2017-11-30T03:35:05.602Z,3.56
2017-11-30T03:37:33.165Z,3.54
2017-11-30T03:40:00.619Z,3.49
2017-11-30T03:42:28.097Z,3.46
2017-11-30T03:44:55.569Z,3.41
2017-11-30T03:47:23.028Z,3.38
2017-11-30T03:49:50.503Z,3.32
2017-11-30T03:52:18.000Z,3.30
2017-11-30T03:54:45.452Z,3.32
2017-11-30T03:57:12.968Z,3.29
2017-11-30T03:59:40.471Z,3.26
2017-11-30T04:02:08.035Z,3.26
2017-11-30T04:04:35.500Z,3.25
2017-11-30T04:07:02.965Z,3.25
2017-11-30T04:09:30.455Z,3.18
2017-11-30T04:11:58.577Z,3.17
2017-11-30T04:14:26.012Z,3.17
2017-11-30T04:17:07.748Z,3.19
2017-11-30T04:19:35.207Z,3.19
2017-11-30T04:22:02.746Z,3.15
2017-11-30T04:24:30.227Z,3.14
2017-11-30T04:26:57.726Z,3.15
2017-11-30T04:29:25.164Z,3.14
2017-11-30T04:31:52.603Z,3.12
2017-11-30T04:34:20.057Z,3.13
2017-11-30T04:36:47.501Z,3.09
2017-11-30T04:39:14.971Z,3.12
2017-11-30T04:41:42.504Z,3.10
2017-11-30T04:44:09.981Z,3.07
2017-11-30T04:46:37.479Z,3.08
2017-11-30T04:49:04.971Z,3.07
2017-11-30T04:51:32.472Z,3.04
2017-11-30T04:53:59.910Z,3.03
2017-11-30T04:56:27.456Z,3.03
2017-11-30T04:58:55.042Z,2.98
2017-11-30T05:01:22.490Z,2.97
2017-11-30T05:03:49.949Z,2.97
2017-11-30T05:06:17.478Z,2.97
2017-11-30T05:08:44.962Z,2.97
2017-11-30T05:11:12.482Z,2.97
2017-11-30T05:13:39.985Z,3.02
2017-11-30T05:16:07.441Z,3.02
2017-11-30T05:18:34.902Z,3.07
2017-11-30T05:21:02.368Z,3.05
2017-11-30T05:23:29.856Z,3.00
2017-11-30T05:25:57.417Z,3.01
2017-11-30T05:28:24.937Z,3.02
2017-11-30T05:30:52.499Z,2.96
2017-11-30T05:33:20.047Z,2.96
2017-11-30T05:35:47.487Z,2.92
2017-11-30T05:38:14.958Z,2.90
2017-11-30T05:40:42.420Z,2.91
2017-11-30T05:43:09.898Z,2.90
2017-11-30T05:45:37.341Z,2.86
2017-11-30T05:48:04.830Z,2.88
2017-11-30T05:50:32.393Z,2.86
2017-11-30T05:52:59.881Z,2.82
2017-11-30T05:55:27.398Z,2.80
2017-11-30T05:57:54.855Z,2.80
2017-11-30T06:00:22.306Z,2.82
2017-11-30T06:02:49.822Z,2.78
2017-11-30T06:05:17.428Z,2.75
2017-11-30T06:07:45.188Z,2.75
2017-11-30T06:10:12.937Z,2.66
2017-11-30T06:12:40.386Z,2.62
2017-11-30T06:15:07.869Z,2.58
2017-11-30T06:17:35.326Z,2.53
2017-11-30T06:20:02.836Z,2.56
2017-11-30T06:22:30.290Z,2.55
2017-11-30T06:24:57.774Z,2.56
2017-11-30T06:27:25.455Z,2.54
2017-11-30T06:29:53.061Z,2.51
2017-11-30T06:32:20.561Z,2.49
2017-11-30T06:34:48.788Z,2.48
2017-11-30T06:37:16.362Z,2.46
2017-11-30T06:39:43.842Z,2.43
2017-11-30T06:42:11.276Z,2.40
2017-11-30T06:44:38.790Z,2.39
2017-11-30T06:47:06.288Z,2.34
2017-11-30T06:49:33.750Z,2.37
2017-11-30T06:52:01.313Z,2.37
2017-11-30T06:54:28.813Z,2.40
2017-11-30T06:56:56.584Z,2.37
2017-11-30T06:59:24.134Z,2.33
2017-11-30T07:01:51.810Z,2.31
2017-11-30T07:04:19.338Z,2.31
2017-11-30T07:07:01.413Z,2.30
2017-11-30T07:09:29.181Z,2.30
2017-11-30T07:11:56.691Z,2.31
2017-11-30T07:14:27.090Z,2.30
2017-11-30T07:17:13.825Z,2.30
2017-11-30T07:19:41.284Z,2.31
2017-11-30T07:22:08.850Z,2.31
2017-11-30T07:24:36.344Z,2.33
2017-11-30T07:27:04.743Z,2.37
2017-11-30T07:29:32.203Z,2.41
2017-11-30T07:31:59.763Z,2.40
2017-11-30T07:34:28.133Z,2.39
2017-11-30T07:36:55.724Z,2.40
2017-11-30T07:39:23.447Z,2.34
2017-11-30T07:41:51.023Z,2.31
2017-11-30T07:44:18.741Z,2.30
2017-11-30T07:46:46.247Z,2.29
2017-11-30T07:49:13.749Z,2.33
2017-11-30T07:51:41.290Z,2.39
2017-11-30T07:54:08.779Z,2.38
2017-11-30T07:56:36.263Z,2.44
2017-11-30T07:59:03.839Z,2.45
2017-11-30T08:01:31.279Z,2.50
2017-11-30T08:03:58.733Z,2.55
2017-11-30T08:06:31.363Z,2.52
2017-11-30T08:08:58.871Z,2.48
2017-11-30T08:11:26.363Z,2.54
2017-11-30T08:13:54.015Z,2.55
2017-11-30T08:16:31.452Z,2.54
2017-11-30T08:18:58.933Z,2.57
2017-11-30T08:21:26.844Z,2.61
2017-11-30T08:23:54.345Z,2.70
2017-11-30T08:26:21.822Z,2.72
2017-11-30T08:28:49.409Z,2.69
2017-11-30T08:31:16.967Z,2.70
2017-11-30T08:33:44.651Z,2.67
2017-11-30T08:36:13.008Z,2.67
2017-11-30T08:38:40.540Z,2.68
2017-11-30T08:41:07.994Z,2.72
2017-11-30T08:43:35.533Z,2.70
2017-11-30T08:46:03.957Z,2.75
2017-11-30T08:48:31.481Z,2.75
2017-11-30T08:50:58.982Z,2.82
2017-11-30T08:53:26.442Z,2.83
2017-11-30T08:56:03.600Z,2.84
2017-11-30T08:58:31.087Z,2.84
2017-11-30T09:00:58.749Z,2.86
2017-11-30T09:03:26.243Z,2.86
2017-11-30T09:05:53.757Z,2.88
2017-11-30T09:08:21.297Z,2.89
2017-11-30T09:10:48.861Z,2.85
2017-11-30T09:13:16.328Z,2.83
2017-11-30T09:15:43.903Z,2.81
2017-11-30T09:18:11.407Z,2.85
2017-11-30T09:20:38.899Z,2.89
2017-11-30T09:23:06.398Z,2.93
2017-11-30T09:25:34.068Z,3.00
2017-11-30T09:28:02.479Z,3.04
2017-11-30T09:30:30.227Z,3.11
2017-11-30T09:32:57.704Z,3.13
2017-11-30T09:35:25.220Z,3.16
2017-11-30T09:37:52.788Z,3.24
2017-11-30T09:40:21.016Z,3.27
2017-11-30T09:42:48.539Z,3.25
2017-11-30T09:45:16.256Z,3.24
2017-11-30T09:47:44.903Z,3.23
2017-11-30T09:50:13.121Z,3.24
2017-11-30T09:52:40.623Z,3.18
2017-11-30T09:55:08.240Z,3.17
2017-11-30T09:57:35.736Z,3.16
2017-11-30T10:00:03.245Z,3.14
2017-11-30T10:02:30.921Z,3.12
2017-11-30T10:04:58.428Z,3.13
2017-11-30T10:07:30.957Z,3.15
2017-11-30T10:09:58.505Z,3.14
2017-11-30T10:12:26.605Z,3.18
2017-11-30T10:14:54.115Z,3.24
2017-11-30T10:17:21.880Z,3.34
2017-11-30T10:19:49.318Z,3.35
2017-11-30T10:22:17.346Z,3.37
2017-11-30T10:24:44.845Z,3.34
2017-11-30T10:27:12.583Z,3.35
2017-11-30T10:29:40.070Z,3.35
2017-11-30T10:32:07.551Z,3.32
2017-11-30T10:34:35.124Z,3.33
2017-11-30T10:37:16.882Z,3.32
2017-11-30T10:39:44.340Z,3.32
2017-11-30T10:42:11.804Z,3.32
2017-11-30T10:44:39.475Z,3.33
2017-11-30T10:47:07.011Z,3.38
2017-11-30T10:49:34.582Z,3.45
2017-11-30T10:52:02.177Z,3.55
2017-11-30T10:54:30.327Z,3.70
2017-11-30T10:56:57.831Z,3.81
2017-11-30T10:59:25.642Z,3.87
2017-11-30T11:01:53.376Z,3.89
2017-11-30T11:04:21.113Z,3.87
2017-11-30T11:06:48.750Z,3.83
2017-11-30T11:09:16.530Z,3.79
2017-11-30T11:11:44.031Z,3.76
2017-11-30T11:14:11.532Z,3.71
2017-11-30T11:16:39.087Z,3.67
2017-11-30T11:19:06.539Z,3.67
2017-11-30T11:21:34.073Z,3.69
2017-11-30T11:24:01.665Z,3.68
2017-11-30T11:26:38.892Z,3.65
2017-11-30T11:29:06.446Z,3.66
2017-11-30T11:31:34.020Z,3.66
2017-11-30T11:34:01.551Z,3.73
2017-11-30T11:36:34.353Z,3.78
2017-11-30T11:39:02.180Z,3.90
2017-11-30T11:41:30.463Z,3.99
2017-11-30T11:43:57.939Z,4.09
2017-11-30T11:46:25.373Z,4.30
2017-11-30T11:48:52.870Z,4.36
2017-11-30T11:51:20.636Z,4.75
2017-11-30T11:53:48.144Z,5.28
2017-11-30T11:56:16.789Z,5.63
2017-11-30T11:58:45.244Z,5.89
2017-11-30T12:01:12.903Z,5.95
2017-11-30T12:03:40.611Z,6.01
2017-11-30T12:06:22.334Z,5.98
2017-11-30T12:08:49.954Z,5.97
2017-11-30T12:11:17.570Z,5.82
2017-11-30T12:13:45.102Z,5.61
2017-11-30T12:16:12.785Z,5.66
2017-11-30T12:18:40.742Z,5.58
2017-11-30T12:21:08.482Z,5.68
2017-11-30T12:23:35.969Z,5.67
2017-11-30T12:26:03.662Z,5.77
2017-11-30T12:28:31.191Z,5.83
2017-11-30T12:30:58.705Z,5.69
2017-11-30T12:33:26.718Z,5.32
2017-11-30T12:35:54.246Z,5.17
2017-11-30T12:38:21.752Z,4.95
2017-11-30T12:40:49.929Z,4.91
2017-11-30T12:43:17.615Z,4.86
2017-11-30T12:45:45.159Z,4.92
2017-11-30T12:48:12.929Z,5.09
2017-11-30T12:50:40.701Z,5.21
2017-11-30T12:53:08.392Z,5.35
2017-11-30T12:55:36.121Z,5.33
2017-11-30T12:58:04.349Z,5.43
2017-11-30T13:00:31.939Z,5.48
2017-11-30T13:03:00.045Z,5.30
2017-11-30T13:05:28.453Z,5.15
2017-11-30T13:08:10.181Z,4.98
2017-11-30T13:10:38.924Z,4.88
2017-11-30T13:13:06.466Z,4.79
2017-11-30T13:15:33.982Z,4.72
2017-11-30T13:18:01.637Z,4.77
2017-11-30T13:20:29.417Z,4.79
2017-11-30T13:22:56.957Z,4.71
2017-11-30T13:25:24.484Z,4.68
2017-11-30T13:27:52.049Z,4.58
2017-11-30T13:30:19.731Z,4.59
2017-11-30T13:32:47.224Z,4.57
2017-11-30T13:35:14.981Z,4.56
2017-11-30T13:37:47.376Z,4.48
2017-11-30T13:40:15.104Z,4.41
2017-11-30T13:42:42.838Z,4.37
2017-11-30T13:45:10.416Z,4.43
2017-11-30T13:47:38.555Z,4.54
2017-11-30T13:50:06.055Z,4.59
2017-11-30T13:52:33.583Z,4.55
2017-11-30T13:55:01.294Z,4.53
2017-11-30T13:57:28.770Z,4.45
2017-11-30T13:59:56.191Z,4.43
2017-11-30T14:02:23.671Z,4.36
2017-11-30T14:04:51.340Z,4.33
2017-11-30T14:07:18.864Z,4.27
2017-11-30T14:09:46.351Z,4.25
2017-11-30T14:12:13.826Z,4.30
2017-11-30T14:14:41.303Z,4.39
2017-11-30T14:17:08.864Z,4.43
2017-11-30T14:19:36.432Z,4.46
2017-11-30T14:22:03.903Z,4.41
2017-11-30T14:24:32.305Z,4.39
2017-11-30T14:27:00.112Z,4.39
2017-11-30T14:29:27.600Z,4.35
2017-11-30T14:31:55.080Z,4.31
2017-11-30T14:34:22.597Z,4.25
2017-11-30T14:36:50.134Z,4.16
2017-11-30T14:39:17.596Z,4.06
2017-11-30T14:41:45.081Z,4.01
2017-11-30T14:44:12.524Z,3.97
2017-11-30T14:46:40.010Z,3.99
2017-11-30T14:49:07.562Z,3.97
2017-11-30T14:51:35.098Z,3.94
2017-11-30T14:54:02.649Z,3.88
2017-11-30T14:56:30.105Z,3.88
2017-11-30T14:58:57.548Z,3.81
2017-11-30T15:01:25.045Z,3.73
2017-11-30T15:03:52.542Z,3.68
2017-11-30T15:06:20.064Z,3.67
2017-11-30T15:08:47.903Z,3.63
2017-11-30T15:11:15.531Z,3.60
2017-11-30T15:13:43.012Z,3.58
2017-11-30T15:16:10.519Z,3.57
2017-11-30T15:18:37.976Z,3.52
2017-11-30T15:21:05.487Z,3.48
2017-11-30T15:23:34.035Z,3.48
2017-11-30T15:26:01.515Z,3.46
2017-11-30T15:28:29.014Z,3.45
2017-11-30T15:30:56.509Z,3.43
2017-11-30T15:33:24.072Z,3.43
2017-11-30T15:35:51.727Z,3.41
2017-11-30T15:38:19.174Z,3.39
2017-11-30T15:40:46.716Z,3.37
2017-11-30T15:43:14.266Z,3.37
2017-11-30T15:45:41.970Z,3.36
2017-11-30T15:48:09.548Z,3.34
2017-11-30T15:50:37.339Z,3.31
2017-11-30T15:53:04.974Z,3.32
2017-11-30T15:55:32.444Z,3.29
2017-11-30T15:57:59.972Z,3.27
2017-11-30T16:00:27.825Z,3.22
2017-11-30T16:02:55.464Z,3.24
2017-11-30T16:05:23.842Z,3.22
2017-11-30T16:07:51.366Z,3.24
2017-11-30T16:10:19.075Z,3.20
2017-11-30T16:12:46.798Z,3.19
2017-11-30T16:15:14.305Z,3.21
2017-11-30T16:17:41.905Z,3.22
2017-11-30T16:20:10.597Z,3.23
2017-11-30T16:22:38.283Z,3.20
2017-11-30T16:25:05.818Z,3.19
2017-11-30T16:27:33.327Z,3.16
2017-11-30T16:30:00.808Z,3.15
2017-11-30T16:32:28.436Z,3.16
2017-11-30T16:34:55.992Z,3.13
2017-11-30T16:37:23.482Z,3.14
2017-11-30T16:39:51.057Z,3.13
2017-11-30T16:42:18.577Z,3.14
2017-11-30T16:44:46.107Z,3.07
2017-11-30T16:47:13.692Z,3.03
2017-11-30T16:49:41.378Z,2.99
2017-11-30T16:52:09.026Z,2.97
2017-11-30T16:54:36.675Z,2.94
2017-11-30T16:57:09.298Z,2.94
2017-11-30T16:59:40.558Z,2.92
2017-11-30T17:02:08.404Z,2.92
2017-11-30T17:04:36.036Z,2.92
2017-11-30T17:07:13.206Z,2.95
2017-11-30T17:09:40.721Z,2.95
2017-11-30T17:12:08.378Z,2.95
2017-11-30T17:14:35.968Z,2.93
2017-11-30T17:17:03.475Z,2.93
2017-11-30T17:19:31.366Z,2.90
2017-11-30T17:21:59.015Z,2.85
2017-11-30T17:24:26.581Z,2.86
2017-11-30T17:26:58.664Z,2.84
2017-11-30T17:29:26.210Z,2.82
2017-11-30T17:31:53.816Z,2.77
2017-11-30T17:34:22.168Z,2.75
2017-11-30T17:37:01.565Z,2.71
2017-11-30T17:39:29.107Z,2.67
2017-11-30T17:41:56.775Z,2.66
2017-11-30T17:44:24.384Z,2.64
2017-11-30T17:46:52.059Z,2.67
2017-11-30T17:49:19.657Z,2.65
2017-11-30T17:51:47.263Z,2.64
2017-11-30T17:54:15.472Z,2.62
2017-11-30T17:56:43.036Z,2.60
2017-11-30T17:59:10.692Z,2.61
2017-11-30T18:01:39.080Z,2.60
2017-11-30T18:04:06.561Z,2.59
2017-11-30T18:06:48.572Z,2.60
2017-11-30T18:09:16.060Z,2.55
2017-11-30T18:11:43.545Z,2.57
2017-11-30T18:14:11.052Z,2.54
2017-11-30T18:16:38.548Z,2.52
2017-11-30T18:19:06.086Z,2.53
2017-11-30T18:21:33.608Z,2.51
2017-11-30T18:24:01.124Z,2.49
2017-11-30T18:26:28.570Z,2.48
2017-11-30T18:29:06.530Z,2.45
2017-11-30T18:31:34.184Z,2.44
2017-11-30T18:34:01.695Z,2.46
2017-11-30T18:36:29.260Z,2.48
2017-11-30T18:38:56.809Z,2.48
2017-11-30T18:41:24.340Z,2.48
2017-11-30T18:43:51.839Z,2.45
2017-11-30T18:46:19.652Z,2.44
2017-11-30T18:48:47.397Z,2.44
2017-11-30T18:51:14.918Z,2.45
2017-11-30T18:53:42.469Z,2.45
2017-11-30T18:56:10.032Z,2.45
2017-11-30T18:58:37.648Z,2.43
2017-11-30T19:01:05.246Z,2.45
2017-11-30T19:03:32.739Z,2.48
2017-11-30T19:06:00.868Z,2.51
2017-11-30T19:08:28.370Z,2.45
2017-11-30T19:10:56.114Z,2.44
2017-11-30T19:13:23.731Z,2.44
2017-11-30T19:15:51.299Z,2.42
2017-11-30T19:18:18.752Z,2.37
2017-11-30T19:20:46.301Z,2.38
2017-11-30T19:23:13.769Z,2.38
2017-11-30T19:25:41.575Z,2.39
2017-11-30T19:28:10.067Z,2.42
2017-11-30T19:30:37.648Z,2.42
2017-11-30T19:33:05.155Z,2.39
2017-11-30T19:35:32.625Z,2.41
2017-11-30T19:38:00.171Z,2.45
2017-11-30T19:40:27.653Z,2.46
2017-11-30T19:42:55.220Z,2.49
2017-11-30T19:45:22.910Z,2.49
2017-11-30T19:47:50.486Z,2.49
2017-11-30T19:50:17.937Z,2.49
2017-11-30T19:52:45.560Z,2.47
2017-11-30T19:55:13.126Z,2.49
2017-11-30T19:57:40.684Z,2.46
2017-11-30T20:00:08.280Z,2.43
2017-11-30T20:02:35.807Z,2.42
2017-11-30T20:05:03.309Z,2.43
2017-11-30T20:07:31.066Z,2.42
2017-11-30T20:09:58.624Z,2.42
2017-11-30T20:12:26.150Z,2.40
2017-11-30T20:14:53.734Z,2.40
2017-11-30T20:17:21.264Z,2.37
2017-11-30T20:19:48.765Z,2.37
2017-11-30T20:22:16.280Z,2.36
2017-11-30T20:24:43.967Z,2.35
2017-11-30T20:27:16.544Z,2.38
2017-11-30T20:29:44.047Z,2.41
2017-11-30T20:32:11.616Z,2.43
2017-11-30T20:34:39.131Z,2.45
2017-11-30T20:37:06.765Z,2.49
2017-11-30T20:39:34.525Z,2.49
2017-11-30T20:42:03.372Z,2.49
2017-11-30T20:44:30.948Z,2.49
2017-11-30T20:46:58.517Z,2.52
2017-11-30T20:49:26.309Z,2.53
2017-11-30T20:51:53.894Z,2.49
2017-11-30T20:54:21.363Z,2.48
2017-11-30T20:56:54.004Z,2.46
2017-11-30T20:59:21.641Z,2.45
2017-11-30T21:01:49.229Z,2.48
2017-11-30T21:04:16.700Z,2.46
2017-11-30T21:06:44.247Z,2.45
2017-11-30T21:09:12.324Z,2.48
2017-11-30T21:11:39.774Z,2.47
2017-11-30T21:14:07.244Z,2.46
2017-11-30T21:16:34.807Z,2.45
2017-11-30T21:19:02.280Z,2.45
2017-11-30T21:21:29.750Z,2.45
2017-11-30T21:23:57.256Z,2.43
2017-11-30T21:26:24.762Z,2.42
2017-11-30T21:28:52.260Z,2.42
2017-11-30T21:31:19.733Z,2.42
2017-11-30T21:33:47.229Z,2.45
2017-11-30T21:36:14.744Z,2.49
2017-11-30T21:38:42.194Z,2.51
2017-11-30T21:41:09.782Z,2.54
2017-11-30T21:43:37.313Z,2.55
2017-11-30T21:46:04.829Z,2.57
2017-11-30T21:48:33.129Z,2.57
2017-11-30T21:51:00.653Z,2.59
2017-11-30T21:53:28.131Z,2.60
2017-11-30T21:55:55.712Z,2.59
2017-11-30T21:58:23.154Z,2.60
2017-11-30T22:00:50.658Z,2.59
2017-11-30T22:03:18.199Z,2.57
2017-11-30T22:05:46.213Z,2.67
2017-11-30T22:08:13.750Z,2.70
2017-11-30T22:10:41.202Z,2.70
2017-11-30T22:13:08.755Z,2.69
2017-11-30T22:15:36.229Z,2.70
2017-11-30T22:18:03.727Z,2.71
2017-11-30T22:20:31.261Z,2.69
2017-11-30T22:22:58.785Z,2.69
2017-11-30T22:25:26.413Z,2.68
2017-11-30T22:27:53.937Z,2.68
2017-11-30T22:30:21.388Z,2.66
2017-11-30T22:32:48.939Z,2.67
2017-11-30T22:35:16.444Z,2.68
2017-11-30T22:37:43.999Z,2.70
2017-11-30T22:40:11.456Z,2.71
2017-11-30T22:42:38.912Z,2.72
2017-11-30T22:45:06.446Z,2.71
2017-11-30T22:47:33.932Z,2.68
2017-11-30T22:50:01.422Z,2.68
2017-11-30T22:52:28.919Z,2.69
2017-11-30T22:54:56.380Z,2.69
2017-11-30T22:57:23.831Z,2.72
2017-11-30T22:59:51.406Z,2.66
2017-11-30T23:02:18.892Z,2.63
2017-11-30T23:04:46.400Z,2.65
2017-11-30T23:07:13.937Z,2.62
2017-11-30T23:09:41.492Z,2.61
2017-11-30T23:12:08.985Z,2.59
2017-11-30T23:14:36.617Z,2.59
2017-11-30T23:17:04.442Z,2.59
2017-11-30T23:19:35.753Z,2.63
2017-11-30T23:22:03.304Z,2.62
2017-11-30T23:24:30.803Z,2.57
2017-11-30T23:27:08.072Z,2.55
2017-11-30T23:29:35.832Z,2.50
2017-11-30T23:32:03.350Z,2.50
2017-11-30T23:34:30.815Z,2.50
2017-11-30T23:36:58.407Z,2.49
2017-11-30T23:39:25.950Z,2.48
2017-11-30T23:41:53.617Z,2.41
2017-11-30T23:44:21.112Z,2.33
2017-11-30T23:46:48.757Z,2.30
2017-11-30T23:49:16.304Z,2.24
2017-11-30T23:51:43.793Z,2.23
2017-11-30T23:54:11.299Z,2.23
2017-11-30T23:56:39.105Z,2.20
2017-11-30T23:59:06.576Z,2.17
